createdAt,value
2022-08-05T00:00:30.545Z,22.08
2022-08-05T00:01:29.638Z,22.06
2022-08-05T00:02:30.543Z,22.06
2022-08-05T00:03:29.486Z,22.15
2022-08-05T00:04:29.472Z,22.08
2022-08-05T00:06:05.365Z,22.02
2022-08-05T00:06:33.430Z,21.99
2022-08-05T00:08:00.213Z,22.08
2022-08-05T00:08:34.540Z,21.98
2022-08-05T00:09:29.375Z,22.07
2022-08-05T00:10:29.366Z,21.93
2022-08-05T00:11:34.775Z,22.00
2022-08-05T00:12:30.325Z,21.99
2022-08-05T00:13:38.016Z,22.00
2022-08-05T00:14:31.379Z,21.91
2022-08-05T00:15:57.694Z,21.83
2022-08-05T00:16:36.174Z,21.83
2022-08-05T00:17:30.513Z,21.88
2022-08-05T00:18:29.217Z,21.83
2022-08-05T00:19:33.159Z,21.66
2022-08-05T00:20:29.257Z,21.76
2022-08-05T00:21:30.524Z,21.72
2022-08-05T00:22:29.142Z,21.67
2022-08-05T00:23:30.778Z,21.58
2022-08-05T00:24:30.712Z,21.66
2022-08-05T00:25:29.087Z,21.52
2022-08-05T00:26:29.092Z,21.58
2022-08-05T00:27:36.544Z,21.57
2022-08-05T00:28:30.032Z,21.60
2022-08-05T00:29:37.792Z,21.52
2022-08-05T00:30:32.099Z,21.45
2022-08-05T00:31:53.273Z,21.51
2022-08-05T00:32:29.960Z,21.55
2022-08-05T00:34:53.260Z,21.54
2022-08-05T00:34:54.018Z,21.54
2022-08-05T00:35:33.133Z,21.48
2022-08-05T00:37:11.023Z,21.43
2022-08-05T00:37:35.563Z,21.54
2022-08-05T00:38:33.871Z,21.60
2022-08-05T00:39:28.895Z,21.48
2022-08-05T00:40:29.820Z,21.58
2022-08-05T00:41:28.829Z,21.57
2022-08-05T00:42:32.178Z,21.60
2022-08-05T00:43:28.766Z,21.52
2022-08-05T00:44:30.766Z,21.46
2022-08-05T00:45:42.855Z,21.50
2022-08-05T00:46:42.508Z,21.39
2022-08-05T00:47:53.059Z,21.37
2022-08-05T00:48:31.502Z,21.52
2022-08-05T00:49:32.695Z,21.48
2022-08-05T00:50:28.642Z,21.45
2022-08-05T00:51:50.528Z,21.40
2022-08-05T00:52:29.603Z,21.48
2022-08-05T00:54:00.618Z,21.37
2022-08-05T00:54:30.064Z,21.48
2022-08-05T00:55:42.202Z,21.43
2022-08-05T00:56:29.558Z,21.36
2022-08-05T00:57:31.726Z,21.39
2022-08-05T00:58:29.493Z,21.46
2022-08-05T00:59:34.620Z,21.40
2022-08-05T01:00:29.462Z,21.45
2022-08-05T01:01:48.343Z,21.40
2022-08-05T01:02:29.419Z,21.46
2022-08-05T01:03:30.935Z,21.45
2022-08-05T01:04:29.738Z,21.40
2022-08-05T01:05:28.366Z,21.35
2022-08-05T01:06:32.826Z,21.40
2022-08-05T01:07:31.677Z,21.39
2022-08-05T01:08:41.929Z,21.36
2022-08-05T01:09:30.482Z,21.32
2022-08-05T01:10:28.278Z,21.46
2022-08-05T01:11:33.884Z,21.39
2022-08-05T01:12:29.837Z,21.42
2022-08-05T01:13:58.788Z,21.35
2022-08-05T01:14:29.210Z,21.37
2022-08-05T01:15:36.147Z,21.36
2022-08-05T01:16:29.207Z,21.39
2022-08-05T01:17:28.152Z,21.37
2022-08-05T01:18:28.134Z,21.37
2022-08-05T01:19:46.342Z,21.37
2022-08-05T01:20:29.094Z,21.36
2022-08-05T01:21:38.050Z,21.35
2022-08-05T01:22:29.058Z,21.40
2022-08-05T01:23:34.771Z,21.30
2022-08-05T01:24:30.105Z,21.29
2022-08-05T01:25:39.986Z,21.18
2022-08-05T01:26:29.007Z,21.15
2022-08-05T01:27:28.023Z,21.07
2022-08-05T01:28:28.949Z,21.11
2022-08-05T01:29:27.928Z,21.00
2022-08-05T01:30:34.675Z,20.99
2022-08-05T01:31:28.907Z,21.00
2022-08-05T01:32:28.874Z,21.05
2022-08-05T01:33:27.851Z,20.99
2022-08-05T01:34:28.832Z,20.90
2022-08-05T01:35:51.215Z,21.00
2022-08-05T01:36:29.824Z,20.99
2022-08-05T01:37:28.136Z,20.96
2022-08-05T01:38:29.922Z,20.90
2022-08-05T01:39:46.303Z,20.82
2022-08-05T01:40:29.113Z,20.88
2022-08-05T01:41:27.737Z,21.00
2022-08-05T01:42:27.694Z,20.90
2022-08-05T01:43:27.691Z,20.93
2022-08-05T01:44:34.420Z,20.95
2022-08-05T01:45:28.645Z,20.90
2022-08-05T01:46:41.943Z,20.87
2022-08-05T01:47:38.683Z,20.87
2022-08-05T01:48:28.614Z,20.81
2022-08-05T01:49:27.570Z,20.66
2022-08-05T01:50:29.691Z,20.75
2022-08-05T01:51:29.308Z,20.75
2022-08-05T01:52:27.511Z,20.65
2022-08-05T01:53:57.086Z,20.63
2022-08-05T01:54:28.475Z,20.58
2022-08-05T01:55:27.455Z,20.63
2022-08-05T01:58:10.630Z,20.59
2022-08-05T01:58:11.344Z,20.63
2022-08-05T01:58:40.379Z,20.60
2022-08-05T01:59:28.377Z,20.66
2022-08-05T02:00:30.518Z,20.72
2022-08-05T02:01:27.644Z,20.58
2022-08-05T02:02:28.676Z,20.60
2022-08-05T02:03:31.856Z,20.56
2022-08-05T02:04:28.296Z,20.59
2022-08-05T02:05:28.535Z,20.55
2022-08-05T02:06:37.825Z,20.52
2022-08-05T02:07:30.187Z,20.47
2022-08-05T02:08:30.830Z,20.43
2022-08-05T02:09:27.198Z,20.36
2022-08-05T02:10:28.667Z,20.47
2022-08-05T02:11:32.882Z,20.36
2022-08-05T02:12:28.144Z,20.37
2022-08-05T02:13:27.125Z,20.37
2022-08-05T02:14:28.109Z,20.40
2022-08-05T02:15:33.179Z,20.34
2022-08-05T02:16:28.098Z,20.36
2022-08-05T02:18:15.187Z,20.43
2022-08-05T02:18:34.341Z,20.43
2022-08-05T02:19:28.017Z,20.31
2022-08-05T02:20:27.001Z,20.14
2022-08-05T02:21:27.042Z,19.81
2022-08-05T02:22:27.494Z,19.86
2022-08-05T02:23:26.950Z,19.79
2022-08-05T02:24:26.931Z,19.71
2022-08-05T02:25:26.912Z,19.73
2022-08-05T02:26:27.921Z,19.66
2022-08-05T02:27:29.949Z,19.54
2022-08-05T02:28:29.279Z,19.44
2022-08-05T02:29:59.569Z,19.40
2022-08-05T02:30:27.814Z,19.33
2022-08-05T02:31:26.794Z,19.18
2022-08-05T02:32:29.219Z,19.24
2022-08-05T02:33:38.418Z,19.21
2022-08-05T02:34:27.994Z,19.09
2022-08-05T02:35:27.976Z,19.11
2022-08-05T02:36:31.492Z,18.92
2022-08-05T02:37:26.721Z,18.95
2022-08-05T02:38:27.671Z,18.83
2022-08-05T02:39:27.751Z,18.83
2022-08-05T02:40:26.633Z,18.77
2022-08-05T02:41:28.855Z,18.78
2022-08-05T02:42:31.835Z,18.75
2022-08-05T02:43:27.571Z,18.71
2022-08-05T02:44:26.558Z,18.63
2022-08-05T02:45:26.538Z,18.63
2022-08-05T02:46:27.637Z,18.75
2022-08-05T02:47:58.524Z,18.77
2022-08-05T02:48:29.781Z,18.71
2022-08-05T02:49:26.484Z,18.80
2022-08-05T02:50:26.441Z,18.80
2022-08-05T02:51:28.524Z,18.89
2022-08-05T02:52:30.413Z,18.80
2022-08-05T02:53:26.383Z,18.81
2022-08-05T02:54:36.532Z,18.83
2022-08-05T02:55:53.700Z,18.88
2022-08-05T02:56:27.322Z,18.88
2022-08-05T02:58:12.050Z,18.88
2022-08-05T02:58:27.522Z,18.78
2022-08-05T02:59:26.982Z,18.90
2022-08-05T03:00:26.878Z,18.92
2022-08-05T03:01:27.058Z,18.90
2022-08-05T03:02:27.455Z,19.04
2022-08-05T03:03:26.189Z,18.92
2022-08-05T03:04:26.173Z,18.83
2022-08-05T03:06:54.111Z,18.88
2022-08-05T03:06:56.940Z,18.84
2022-08-05T03:08:01.303Z,18.89
2022-08-05T03:08:29.811Z,18.78
2022-08-05T03:09:27.081Z,18.86
2022-08-05T03:10:27.059Z,18.88
2022-08-05T03:11:54.521Z,18.84
2022-08-05T03:12:27.048Z,18.77
2022-08-05T03:13:27.705Z,18.78
2022-08-05T03:14:26.981Z,18.81
2022-08-05T03:15:25.960Z,18.81
2022-08-05T03:16:25.940Z,18.80
2022-08-05T03:17:26.369Z,18.70
2022-08-05T03:18:30.668Z,18.66
2022-08-05T03:19:34.650Z,18.68
2022-08-05T03:20:27.872Z,18.74
2022-08-05T03:21:28.924Z,18.71
2022-08-05T03:22:32.319Z,18.65
2022-08-05T03:23:26.806Z,18.74
2022-08-05T03:24:30.113Z,18.78
2022-08-05T03:25:33.145Z,18.71
2022-08-05T03:26:30.873Z,18.75
2022-08-05T03:27:29.769Z,18.63
2022-08-05T03:28:26.717Z,18.68
2022-08-05T03:29:44.591Z,18.63
2022-08-05T03:30:33.339Z,18.52
2022-08-05T03:31:56.665Z,18.58
2022-08-05T03:32:30.887Z,18.65
2022-08-05T03:33:32.147Z,18.74
2022-08-05T03:34:26.602Z,18.77
2022-08-05T03:35:25.580Z,18.88
2022-08-05T03:36:30.271Z,18.80
2022-08-05T03:37:26.879Z,18.96
2022-08-05T03:38:33.251Z,18.92
2022-08-05T03:39:27.199Z,18.92
2022-08-05T03:40:31.920Z,18.96
2022-08-05T03:41:26.473Z,18.93
2022-08-05T03:42:27.211Z,18.98
2022-08-05T03:44:08.202Z,18.78
2022-08-05T03:44:29.075Z,18.81
2022-08-05T03:45:25.393Z,18.78
2022-08-05T03:46:29.514Z,18.89
2022-08-05T03:47:25.652Z,18.80
2022-08-05T03:48:26.325Z,18.84
2022-08-05T03:49:31.209Z,18.90
2022-08-05T03:50:26.288Z,18.98
2022-08-05T03:52:37.935Z,19.04
2022-08-05T03:52:49.473Z,19.00
2022-08-05T03:55:34.714Z,19.15
2022-08-05T03:55:53.703Z,19.00
2022-08-05T03:56:06.098Z,19.12
2022-08-05T03:56:30.470Z,19.12
2022-08-05T03:57:42.612Z,19.19
2022-08-05T03:58:29.131Z,19.18
2022-08-05T03:59:25.111Z,19.19
2022-08-05T04:00:25.091Z,19.30
2022-08-05T04:01:25.172Z,19.26
2022-08-05T04:02:38.391Z,19.30
2022-08-05T04:03:26.711Z,19.27
2022-08-05T04:04:26.552Z,19.22
2022-08-05T04:05:24.993Z,19.21
2022-08-05T04:06:24.974Z,19.30
2022-08-05T04:07:25.288Z,19.31
2022-08-05T04:08:34.918Z,19.37
2022-08-05T04:09:26.760Z,19.39
2022-08-05T04:10:24.891Z,19.44
2022-08-05T04:11:24.872Z,19.47
2022-08-05T04:12:25.877Z,19.36
2022-08-05T04:13:24.864Z,19.41
2022-08-05T04:14:30.586Z,19.44
2022-08-05T04:15:25.788Z,19.48
2022-08-05T04:16:32.156Z,19.39
2022-08-05T04:17:26.043Z,19.41
2022-08-05T04:18:25.772Z,19.45
2022-08-05T04:19:24.706Z,19.39
2022-08-05T04:20:24.695Z,19.47
2022-08-05T04:22:10.039Z,19.56
2022-08-05T04:22:26.574Z,19.52
2022-08-05T04:24:04.860Z,19.55
2022-08-05T04:24:25.605Z,19.54
2022-08-05T04:25:57.928Z,19.55
2022-08-05T04:26:25.569Z,19.55
2022-08-05T04:27:41.882Z,19.51
2022-08-05T04:28:30.590Z,19.51
2022-08-05T04:29:27.240Z,19.47
2022-08-05T04:30:24.496Z,19.48
2022-08-05T04:31:27.632Z,19.37
2022-08-05T04:32:30.637Z,19.48
2022-08-05T04:33:54.603Z,19.39
2022-08-05T04:34:33.002Z,19.34
2022-08-05T04:35:25.405Z,19.34
2022-08-05T04:36:45.812Z,19.26
2022-08-05T04:38:00.729Z,19.09
2022-08-05T04:38:39.830Z,18.90
2022-08-05T04:39:27.333Z,18.78
2022-08-05T04:40:24.315Z,18.84
2022-08-05T04:41:34.134Z,18.84
2022-08-05T04:42:25.593Z,18.92
2022-08-05T04:43:24.251Z,18.81
2022-08-05T04:44:30.254Z,18.81
2022-08-05T04:45:47.912Z,19.02
2022-08-05T04:46:27.884Z,18.96
2022-08-05T04:47:24.515Z,19.00
2022-08-05T04:48:27.262Z,19.14
2022-08-05T04:49:38.047Z,19.07
2022-08-05T04:50:37.240Z,19.08
2022-08-05T04:51:25.104Z,19.11
2022-08-05T04:52:24.107Z,19.24
2022-08-05T04:53:24.061Z,19.22
2022-08-05T04:54:24.040Z,19.26
2022-08-05T04:56:14.501Z,19.18
2022-08-05T04:56:34.612Z,19.18
2022-08-05T04:57:25.313Z,19.27
2022-08-05T04:58:23.963Z,19.29
2022-08-05T04:59:38.852Z,19.29
2022-08-05T05:00:24.925Z,19.30
2022-08-05T05:02:08.337Z,19.34
2022-08-05T05:02:36.841Z,19.39
2022-08-05T05:03:24.869Z,19.33
2022-08-05T05:04:23.849Z,19.39
2022-08-05T05:05:28.466Z,19.41
2022-08-05T05:06:40.040Z,19.45
2022-08-05T05:07:29.619Z,19.44
2022-08-05T05:08:30.226Z,19.44
2022-08-05T05:09:24.763Z,19.39
2022-08-05T05:10:23.764Z,19.51
2022-08-05T05:11:23.721Z,19.48
2022-08-05T05:12:24.732Z,19.59
2022-08-05T05:13:23.679Z,19.55
2022-08-05T05:14:27.937Z,19.55
2022-08-05T05:15:57.291Z,19.54
2022-08-05T05:16:24.625Z,19.51
2022-08-05T05:17:56.949Z,19.54
2022-08-05T05:18:31.652Z,19.66
2022-08-05T05:19:27.346Z,19.54
2022-08-05T05:20:28.226Z,19.58
2022-08-05T05:21:23.528Z,19.52
2022-08-05T05:22:26.430Z,19.51
2022-08-05T05:23:23.497Z,19.55
2022-08-05T05:24:23.471Z,19.55
2022-08-05T05:25:33.021Z,19.69
2022-08-05T05:26:28.299Z,19.69
2022-08-05T05:27:24.722Z,19.66
2022-08-05T05:28:24.916Z,19.63
2022-08-05T05:29:23.384Z,19.59
2022-08-05T05:30:31.046Z,19.62
2022-08-05T05:31:24.342Z,19.56
2022-08-05T05:32:23.356Z,19.48
2022-08-05T05:33:23.722Z,19.64
2022-08-05T05:34:27.126Z,19.71
2022-08-05T05:35:24.266Z,19.76
2022-08-05T05:36:23.248Z,19.82
2022-08-05T05:37:23.521Z,19.73
2022-08-05T05:38:27.277Z,19.76
2022-08-05T05:39:23.295Z,19.84
2022-08-05T05:40:23.167Z,20.11
2022-08-05T05:41:23.148Z,20.34
2022-08-05T05:42:23.156Z,20.67
2022-08-05T05:43:54.569Z,20.92
2022-08-05T05:44:37.383Z,21.27
2022-08-05T05:45:24.697Z,21.22
2022-08-05T05:46:23.056Z,21.15
2022-08-05T05:47:23.066Z,21.09
2022-08-05T05:48:27.750Z,21.12
2022-08-05T05:49:23.444Z,20.99
2022-08-05T05:50:22.986Z,20.85
2022-08-05T05:51:22.995Z,20.82
2022-08-05T05:52:28.300Z,20.70
2022-08-05T05:53:23.926Z,20.59
2022-08-05T05:54:22.909Z,20.60
2022-08-05T05:55:23.890Z,20.34
2022-08-05T05:56:31.365Z,20.10
2022-08-05T05:57:24.138Z,20.06
2022-08-05T05:58:22.833Z,20.00
2022-08-05T05:59:23.818Z,19.92
2022-08-05T06:00:27.847Z,19.94
2022-08-05T06:01:23.777Z,19.88
2022-08-05T06:02:32.548Z,19.84
2022-08-05T06:03:40.537Z,19.84
2022-08-05T06:04:23.761Z,19.84
2022-08-05T06:05:22.772Z,19.85
2022-08-05T06:06:22.688Z,19.84
2022-08-05T06:07:22.948Z,19.86
2022-08-05T06:08:31.580Z,19.91
2022-08-05T06:09:24.788Z,19.94
2022-08-05T06:10:22.612Z,19.88
2022-08-05T06:11:22.592Z,19.86
2022-08-05T06:12:22.600Z,19.86
2022-08-05T06:13:22.557Z,19.86
2022-08-05T06:14:22.537Z,19.94
2022-08-05T06:15:24.211Z,19.94
2022-08-05T06:16:31.621Z,19.86
2022-08-05T06:17:52.713Z,19.91
2022-08-05T06:18:31.051Z,19.79
2022-08-05T06:19:34.038Z,19.67
2022-08-05T06:20:23.433Z,19.74
2022-08-05T06:21:22.408Z,19.79
2022-08-05T06:22:22.415Z,19.77
2022-08-05T06:23:22.371Z,19.62
2022-08-05T06:24:22.485Z,19.76
2022-08-05T06:25:24.933Z,19.76
2022-08-05T06:26:24.936Z,19.71
2022-08-05T06:28:11.467Z,19.77
2022-08-05T06:28:23.641Z,19.62
2022-08-05T06:29:46.397Z,19.64
2022-08-05T06:30:23.290Z,19.45
2022-08-05T06:31:22.629Z,19.55
2022-08-05T06:32:26.066Z,19.66
2022-08-05T06:34:00.463Z,19.67
2022-08-05T06:34:23.166Z,19.64
2022-08-05T06:36:03.964Z,19.49
2022-08-05T06:36:26.001Z,19.49
2022-08-05T06:37:57.778Z,19.26
2022-08-05T06:38:35.969Z,19.18
2022-08-05T06:39:26.844Z,19.21
2022-08-05T06:40:22.055Z,19.22
2022-08-05T06:41:23.038Z,19.21
2022-08-05T06:42:22.047Z,19.22
2022-08-05T06:43:57.926Z,19.08
2022-08-05T06:44:22.985Z,19.15
2022-08-05T06:45:44.823Z,19.22
2022-08-05T06:46:22.950Z,19.18
2022-08-05T06:48:11.590Z,19.34
2022-08-05T06:48:53.733Z,19.45
2022-08-05T06:50:00.110Z,19.45
2022-08-05T06:50:22.879Z,19.44
2022-08-05T06:51:29.320Z,19.45
2022-08-05T06:52:36.377Z,19.41
2022-08-05T06:53:27.865Z,19.34
2022-08-05T06:54:25.804Z,19.45
2022-08-05T06:55:21.789Z,19.47
2022-08-05T06:56:26.403Z,19.58
2022-08-05T06:58:02.881Z,19.48
2022-08-05T06:58:34.985Z,19.73
2022-08-05T06:59:22.708Z,19.81
2022-08-05T07:00:24.481Z,19.85
2022-08-05T07:01:21.767Z,19.86
2022-08-05T07:02:22.865Z,19.85
2022-08-05T07:03:21.644Z,19.81
2022-08-05T07:04:22.623Z,19.74
2022-08-05T07:05:36.909Z,19.88
2022-08-05T07:06:23.589Z,19.81
2022-08-05T07:07:24.149Z,19.99
2022-08-05T07:08:22.549Z,20.03
2022-08-05T07:09:21.532Z,20.29
2022-08-05T07:10:21.518Z,20.43
2022-08-05T07:11:25.220Z,20.59
2022-08-05T07:12:21.501Z,20.74
2022-08-05T07:13:37.260Z,20.88
2022-08-05T07:14:28.739Z,21.00
2022-08-05T07:15:34.485Z,21.06
2022-08-05T07:18:00.539Z,21.07
2022-08-05T07:18:01.975Z,21.22
2022-08-05T07:18:29.089Z,21.37
2022-08-05T07:20:10.599Z,21.54
2022-08-05T07:20:33.496Z,21.54
2022-08-05T07:21:25.837Z,21.73
2022-08-05T07:22:21.325Z,21.70
2022-08-05T07:23:26.479Z,21.80
2022-08-05T07:24:22.264Z,21.83
2022-08-05T07:25:22.718Z,21.70
2022-08-05T07:26:24.843Z,21.58
2022-08-05T07:27:22.390Z,21.39
2022-08-05T07:28:22.186Z,21.46
2022-08-05T07:29:25.359Z,21.50
2022-08-05T07:30:27.168Z,21.27
2022-08-05T07:31:54.196Z,21.43
2022-08-05T07:32:26.131Z,21.55
2022-08-05T07:33:21.157Z,21.61
2022-08-05T07:34:27.437Z,21.91
2022-08-05T07:36:02.439Z,22.04
2022-08-05T07:36:22.048Z,22.20
2022-08-05T07:37:22.179Z,22.33
2022-08-05T07:38:33.446Z,22.48
2022-08-05T07:39:24.736Z,22.65
2022-08-05T07:40:26.612Z,22.70
2022-08-05T07:42:13.011Z,22.93
2022-08-05T07:42:33.454Z,23.18
2022-08-05T07:43:21.920Z,23.54
2022-08-05T07:44:20.915Z,23.76
2022-08-05T07:45:56.318Z,23.83
2022-08-05T07:46:25.001Z,24.16
2022-08-05T07:47:22.105Z,24.20
2022-08-05T07:49:01.422Z,24.23
2022-08-05T07:49:21.810Z,24.20
2022-08-05T07:50:24.957Z,24.38
2022-08-05T07:51:23.300Z,24.55
2022-08-05T07:52:21.750Z,24.76
2022-08-05T07:53:20.758Z,24.96
2022-08-05T07:54:20.715Z,24.74
2022-08-05T07:56:04.834Z,24.91
2022-08-05T07:57:00.101Z,25.18
2022-08-05T07:57:42.071Z,25.17
2022-08-05T07:58:57.569Z,25.18
2022-08-05T07:59:23.194Z,24.55
2022-08-05T08:00:21.606Z,24.24
2022-08-05T08:01:22.244Z,23.77
2022-08-05T08:02:20.567Z,23.74
2022-08-05T08:03:21.676Z,23.71
2022-08-05T08:04:34.330Z,23.66
2022-08-05T08:05:21.520Z,23.37
2022-08-05T08:06:20.498Z,23.20
2022-08-05T08:07:22.048Z,23.09
2022-08-05T08:08:20.491Z,22.99
2022-08-05T08:09:20.440Z,22.90
2022-08-05T08:10:20.847Z,22.73
2022-08-05T08:11:27.713Z,22.66
2022-08-05T08:12:35.549Z,22.55
2022-08-05T08:13:29.035Z,22.41
2022-08-05T08:14:21.415Z,22.22
2022-08-05T08:16:33.454Z,22.20
2022-08-05T08:16:34.875Z,22.29
2022-08-05T08:17:21.716Z,22.48
2022-08-05T08:18:20.777Z,22.55
2022-08-05T08:20:21.143Z,22.57
2022-08-05T08:20:59.786Z,22.93
2022-08-05T08:21:21.222Z,23.09
2022-08-05T08:22:20.204Z,23.18
2022-08-05T08:24:03.591Z,23.23
2022-08-05T08:24:21.169Z,23.28
2022-08-05T08:25:26.451Z,23.61
2022-08-05T08:26:27.024Z,23.99
2022-08-05T08:27:21.245Z,24.61
2022-08-05T08:28:35.591Z,25.36
2022-08-05T08:29:29.339Z,26.15
2022-08-05T08:30:32.252Z,26.62
2022-08-05T08:31:22.045Z,26.37
2022-08-05T08:32:21.564Z,26.41
2022-08-05T08:33:21.039Z,26.40
2022-08-05T08:34:30.430Z,26.21
2022-08-05T08:35:20.980Z,26.02
2022-08-05T08:36:38.582Z,26.25
2022-08-05T08:37:22.057Z,26.19
2022-08-05T08:38:35.321Z,25.87
2022-08-05T08:39:20.952Z,25.53
2022-08-05T08:40:19.896Z,25.46
2022-08-05T08:41:19.875Z,25.54
2022-08-05T08:42:33.718Z,25.43
2022-08-05T08:45:17.854Z,25.44
2022-08-05T08:45:23.704Z,25.87
2022-08-05T08:45:26.747Z,26.66
2022-08-05T08:46:21.791Z,26.75
2022-08-05T08:47:47.149Z,26.77
2022-08-05T08:48:41.355Z,26.77
2022-08-05T08:50:22.299Z,26.77
2022-08-05T08:50:31.619Z,26.58
2022-08-05T08:51:23.270Z,26.13
2022-08-05T08:52:20.692Z,26.43
2022-08-05T08:53:19.702Z,26.63
2022-08-05T08:54:19.658Z,26.73
2022-08-05T08:56:01.607Z,26.22
2022-08-05T08:56:20.620Z,26.02
2022-08-05T08:57:19.602Z,25.65
2022-08-05T08:58:19.615Z,25.44
2022-08-05T08:59:20.787Z,25.32
2022-08-05T09:00:19.603Z,25.13
2022-08-05T09:01:19.876Z,25.01
2022-08-05T09:02:19.563Z,24.60
2022-08-05T09:03:19.527Z,24.50
2022-08-05T09:04:19.531Z,24.54
2022-08-05T09:05:19.463Z,24.35
2022-08-05T09:06:20.429Z,24.18
2022-08-05T09:07:28.845Z,23.98
2022-08-05T09:08:20.433Z,23.81
2022-08-05T09:09:20.393Z,23.65
2022-08-05T09:10:19.380Z,23.61
2022-08-05T09:11:19.361Z,23.63
2022-08-05T09:12:30.146Z,23.50
2022-08-05T09:13:20.356Z,23.36
2022-08-05T09:14:57.620Z,23.41
2022-08-05T09:15:20.391Z,23.36
2022-08-05T09:16:19.275Z,23.28
2022-08-05T09:17:43.088Z,22.96
2022-08-05T09:18:20.269Z,22.87
2022-08-05T09:19:19.223Z,22.93
2022-08-05T09:20:36.424Z,23.03
2022-08-05T09:21:20.466Z,23.09
2022-08-05T09:22:31.079Z,23.05
2022-08-05T09:23:21.647Z,23.00
2022-08-05T09:24:19.318Z,23.05
2022-08-05T09:25:24.468Z,23.27
2022-08-05T09:26:20.896Z,23.54
2022-08-05T09:28:05.906Z,23.58
2022-08-05T09:28:20.939Z,23.76
2022-08-05T09:29:19.169Z,23.76
2022-08-05T09:30:19.209Z,23.81
2022-08-05T09:31:43.241Z,23.76
2022-08-05T09:32:45.820Z,23.68
2022-08-05T09:33:20.001Z,23.62
2022-08-05T09:34:19.227Z,23.61
2022-08-05T09:35:26.473Z,23.48
2022-08-05T09:36:19.916Z,23.74
2022-08-05T09:37:18.895Z,23.84
2022-08-05T09:38:27.245Z,23.92
2022-08-05T09:39:22.002Z,24.02
2022-08-05T09:40:18.905Z,23.95
2022-08-05T09:41:18.830Z,23.73
2022-08-05T09:42:23.335Z,23.76
2022-08-05T09:43:19.811Z,23.73
2022-08-05T09:44:18.764Z,23.86
2022-08-05T09:46:06.908Z,24.08
2022-08-05T09:46:19.729Z,24.17
2022-08-05T09:47:20.494Z,24.30
2022-08-05T09:48:18.692Z,24.63
2022-08-05T09:49:19.438Z,24.69
2022-08-05T09:50:38.099Z,24.86
2022-08-05T09:51:19.638Z,25.14
2022-08-05T09:52:18.650Z,25.22
2022-08-05T09:53:23.023Z,25.33
2022-08-05T09:54:28.837Z,25.46
2022-08-05T09:55:57.168Z,25.40
2022-08-05T09:56:19.557Z,25.59
2022-08-05T09:57:23.326Z,25.68
2022-08-05T09:58:20.542Z,25.87
2022-08-05T09:59:18.498Z,26.19
2022-08-05T10:00:18.480Z,26.45
2022-08-05T10:01:22.615Z,26.43
2022-08-05T10:02:20.502Z,26.51
2022-08-05T10:03:18.452Z,26.77
2022-08-05T10:04:18.517Z,26.68
2022-08-05T10:05:19.389Z,26.97
2022-08-05T10:06:18.377Z,27.22
2022-08-05T10:07:20.366Z,27.40
2022-08-05T10:08:37.676Z,27.60
2022-08-05T10:09:25.023Z,27.65
2022-08-05T10:10:19.413Z,27.83
2022-08-05T10:11:19.287Z,27.83
2022-08-05T10:12:30.466Z,27.82
2022-08-05T10:13:19.275Z,27.68
2022-08-05T10:14:18.235Z,27.67
2022-08-05T10:15:20.363Z,27.64
2022-08-05T10:16:18.202Z,27.63
2022-08-05T10:17:37.324Z,27.35
2022-08-05T10:18:19.346Z,27.37
2022-08-05T10:19:18.151Z,27.49
2022-08-05T10:20:20.048Z,27.65
2022-08-05T10:21:18.112Z,27.82
2022-08-05T10:22:30.048Z,28.01
2022-08-05T10:23:34.658Z,28.33
2022-08-05T10:24:19.058Z,28.37
2022-08-05T10:25:18.050Z,28.64
2022-08-05T10:26:18.023Z,28.39
2022-08-05T10:27:18.031Z,28.37
2022-08-05T10:28:19.416Z,28.88
2022-08-05T10:29:23.973Z,28.82
2022-08-05T10:31:20.274Z,28.64
2022-08-05T10:32:52.921Z,28.67
2022-08-05T10:33:02.202Z,28.33
2022-08-05T10:33:18.965Z,28.11
2022-08-05T10:34:17.887Z,28.17
2022-08-05T10:35:18.869Z,28.12
2022-08-05T10:36:17.851Z,27.63
2022-08-05T10:37:18.834Z,27.37
2022-08-05T10:38:17.844Z,27.47
2022-08-05T10:39:25.061Z,27.37
2022-08-05T10:40:19.524Z,27.52
2022-08-05T10:41:23.409Z,27.48
2022-08-05T10:42:18.853Z,27.40
2022-08-05T10:43:18.762Z,27.33
2022-08-05T10:44:17.714Z,27.18
2022-08-05T10:45:24.033Z,26.93
2022-08-05T10:46:18.681Z,26.88
2022-08-05T10:47:26.446Z,27.17
2022-08-05T10:48:31.877Z,27.14
2022-08-05T10:49:18.644Z,27.20
2022-08-05T10:50:33.061Z,27.03
2022-08-05T10:51:22.224Z,26.77
2022-08-05T10:52:17.576Z,26.73
2022-08-05T10:53:17.628Z,26.84
2022-08-05T10:54:23.031Z,26.80
2022-08-05T10:55:18.630Z,26.70
2022-08-05T10:56:25.105Z,26.89
2022-08-05T10:57:18.494Z,27.11
2022-08-05T10:58:17.976Z,27.36
2022-08-05T11:00:04.283Z,27.27
2022-08-05T11:00:20.103Z,26.89
2022-08-05T11:01:28.429Z,26.44
2022-08-05T11:02:34.828Z,26.16
2022-08-05T11:03:23.634Z,25.33
2022-08-05T11:04:18.388Z,24.92
2022-08-05T11:05:18.231Z,24.54
2022-08-05T11:06:17.761Z,24.28
2022-08-05T11:07:17.313Z,23.91
2022-08-05T11:08:33.872Z,23.63
2022-08-05T11:09:31.914Z,23.36
2022-08-05T11:10:18.259Z,23.13
2022-08-05T11:11:17.246Z,22.93
2022-08-05T11:12:17.227Z,22.73
2022-08-05T11:13:17.212Z,22.72
2022-08-05T11:14:17.219Z,22.48
2022-08-05T11:15:20.203Z,22.25
2022-08-05T11:16:17.157Z,22.14
2022-08-05T11:17:57.696Z,21.98
2022-08-05T11:18:19.304Z,22.06
2022-08-05T11:20:16.628Z,21.92
2022-08-05T11:20:18.492Z,21.79
2022-08-05T11:21:17.063Z,21.75
2022-08-05T11:22:17.054Z,21.66
2022-08-05T11:23:17.028Z,21.66
2022-08-05T11:24:30.367Z,21.70
2022-08-05T11:26:04.555Z,21.92
2022-08-05T11:26:28.384Z,21.93
2022-08-05T11:27:17.960Z,22.04
2022-08-05T11:28:17.415Z,22.00
2022-08-05T11:29:16.953Z,22.10
2022-08-05T11:30:16.904Z,22.14
2022-08-05T11:31:19.608Z,22.11
2022-08-05T11:32:17.865Z,22.20
2022-08-05T11:33:21.217Z,22.13
2022-08-05T11:34:22.516Z,22.07
2022-08-05T11:35:17.818Z,22.07
2022-08-05T11:36:34.448Z,22.06
2022-08-05T11:38:29.465Z,21.95
2022-08-05T11:38:30.566Z,21.96
2022-08-05T11:39:17.826Z,21.88
2022-08-05T11:40:18.366Z,21.91
2022-08-05T11:41:58.270Z,21.91
2022-08-05T11:42:18.529Z,21.89
2022-08-05T11:43:16.757Z,21.85
2022-08-05T11:44:40.713Z,21.82
2022-08-05T11:46:15.259Z,21.85
2022-08-05T11:46:32.430Z,21.83
2022-08-05T11:47:21.826Z,21.72
2022-08-05T11:48:17.584Z,21.70
2022-08-05T11:49:16.587Z,21.61
2022-08-05T11:50:16.554Z,21.55
2022-08-05T11:51:43.987Z,21.52
2022-08-05T11:52:17.506Z,21.58
2022-08-05T11:53:17.488Z,21.46
2022-08-05T11:54:16.495Z,21.42
2022-08-05T11:55:16.451Z,21.36
2022-08-05T11:56:16.432Z,21.29
2022-08-05T11:57:25.075Z,21.21
2022-08-05T11:58:17.711Z,21.17
2022-08-05T11:59:16.406Z,21.11
2022-08-05T12:00:17.360Z,21.00
2022-08-05T12:01:19.000Z,20.82
2022-08-05T12:02:24.068Z,20.72
2022-08-05T12:03:29.391Z,20.72
2022-08-05T12:04:17.312Z,20.67
2022-08-05T12:05:17.977Z,20.55
2022-08-05T12:06:16.248Z,20.51
2022-08-05T12:07:16.256Z,20.50
2022-08-05T12:08:18.274Z,20.26
2022-08-05T12:09:19.904Z,20.16
2022-08-05T12:10:16.171Z,20.10
2022-08-05T12:11:20.321Z,19.94
2022-08-05T12:12:16.134Z,19.85
2022-08-05T12:13:18.522Z,19.71
2022-08-05T12:14:17.127Z,19.73
2022-08-05T12:15:17.007Z,19.73
2022-08-05T12:16:17.059Z,19.74
2022-08-05T12:18:00.727Z,19.73
2022-08-05T12:18:17.312Z,19.67
2022-08-05T12:20:27.811Z,19.54
2022-08-05T12:20:28.865Z,19.52
2022-08-05T12:21:17.389Z,19.51
2022-08-05T12:22:19.938Z,19.44
2022-08-05T12:23:15.929Z,19.31
2022-08-05T12:24:17.363Z,19.34
2022-08-05T12:25:16.603Z,19.29
2022-08-05T12:26:16.868Z,19.21
2022-08-05T12:27:21.379Z,19.22
2022-08-05T12:28:16.827Z,19.16
2022-08-05T12:29:16.165Z,19.18
2022-08-05T12:30:15.794Z,18.98
2022-08-05T12:31:23.419Z,18.84
2022-08-05T12:32:16.754Z,18.78
2022-08-05T12:33:27.399Z,18.70
2022-08-05T12:34:21.454Z,18.78
2022-08-05T12:35:21.521Z,18.74
2022-08-05T12:36:16.736Z,18.78
2022-08-05T12:37:17.691Z,18.68
2022-08-05T12:38:16.646Z,18.74
2022-08-05T12:39:16.711Z,18.62
2022-08-05T12:40:26.553Z,18.55
2022-08-05T12:41:16.589Z,18.59
2022-08-05T12:42:15.575Z,18.55
2022-08-05T12:43:21.001Z,18.60
2022-08-05T12:44:33.012Z,18.59
2022-08-05T12:45:16.549Z,18.55
2022-08-05T12:46:15.498Z,18.56
2022-08-05T12:47:17.186Z,18.60
2022-08-05T12:48:27.531Z,18.53
2022-08-05T12:49:16.466Z,18.33
2022-08-05T12:50:15.421Z,18.18
2022-08-05T12:52:10.003Z,18.11
2022-08-05T12:52:23.961Z,18.16